Ansonia, OH (45303)

1:52 PM EDT en Octubre 23, 2014 (GMT -0400)
Darke County | Change Station
CLOSE
Current Station
Aeropuerto
Location: Versailles,
Altura: 1007 ft
Estaciones meteorológicas cercanas

Alt 1007 ft 40.20 °N, 84.53 °W | Updated 17 minutes ago

Despejado
Despejado
55 ° F
Sensación térmica 55 ° F
N
0
Viento Variable Viento desde Norte

Hoy
Alta -- | Baja -- ° F
--% Posibilidad de precipitaciones
Ayer
Alta -- | Baja -- ° F
Precip. -- pul
7:57 AM 6:47 PM
Creciente menguante, 0% visible
Presión 30.20 pul
Visibilidad 10.0 Millas
Nubes Despejado
Punto de rocío 41 ° F
Humedad 58%
Precipitaciones 0.00 pul
Espesor de la nieve No disponible.
UV 5 de una escala de 12
Polen .90 de una escala de 12
Ozono Buena
PM2.5 Buena
Flu Activity Sporadic
METAR KVES 231735Z AUTO 00000KT 10SM CLR 13/05 A3020 RMK AO2

More Conditions Fewer Conditions

Presión 30.20 pul
Visibilidad 10.0 Millas
Nubes Despejado
Punto de rocío 41 ° F
Humedad 58%
Precipitaciones 0.00 pul
Espesor de la nieve No disponible.
UV 5 de una escala de 12
Polen .90 de una escala de 12
Ozono Buena
PM2.5 Buena
Flu Activity Sporadic
METAR KVES 231735Z AUTO 00000KT 10SM CLR 13/05 A3020 RMK AO2

More Conditions Fewer Conditions

10-Day Weather Forecast

Almanac

Astronomía

Oct. 23, 2014 Salida Puesta
Hora real 7:57 AM EDT 6:47 PM EDT
Crepúsculo civil 7:30 AM EDT 7:14 PM EDT
Crepúsculo náutico 6:58 AM EDT 7:46 PM EDT
Crepúsculo astronómico 6:26 AM EDT 8:18 PM EDT
Luna 7:36 AM EDT 6:48 PM EDT
Horas de luz 11h 44m
Horas de luz
10h 49m
Tomorrow will be 2m 28s shorter.
Creciente menguante, 0% of the Moon is Illuminated
Hoy
Creciente menguante
Oct 23
Nueva
Oct 30
Cuarto creciente
Nov 6
Luna llena
Nov 14
Cuarto menguante

Extremos de hoy

Máximos del estado Bajos del estado

Community

WunderPhotos

Upload Photos

1,764,322 ¡fotos cargadas!

WunderBlogs® & News

By Dr. Jeff Masters
Director of Meteorology, Weather Underground
By Kari Strenfel
Meteorologist, Weather Underground
By Christopher C. Burt
Weather Historian, Weather Underground
October 23, 2014
October 23, 2014
October 23, 2014

Nearby

Calidad del aire

  Calidad del aire Índice AQ Contaminante
Ayer Buena
PM2.5
Ayer Buena
OZONE
Real Buena
PM2.5
Real Buena
OZONE
Jueves Moderada
PM2.5
Jueves Buena
OZONE
Viernes Buena
PM2.5
Viernes Buena
OZONE
Sábado Buena
PM2.5
Sábado Buena
OZONE
Domingo Buena
PM2.5
Domingo Buena
OZONE
Lunes Buena
PM2.5
Lunes Buena
OZONE

Grosos de nieve

Estación Profundido Altura
No tenemos constancia de nieve nueva.

Actividad de terremotos

Ciudad Distance Mag. Tiempo y dato
No hay informes recientes de la actividad sísmica.
Magnitud mínima muestra es 2,5.

Temperaturas de aguas costeras

Lugar Temperatura
Sin partes meteorológicos de las estaciones

Estaciones meteorológicas cercanas